createdAt,value
2023-03-15T00:01:29.936Z,84.78
2023-03-15T00:04:37.706Z,84.88
2023-03-15T00:07:44.743Z,84.99
2023-03-15T00:10:52.420Z,85.20
2023-03-15T00:13:59.899Z,85.20
2023-03-15T00:17:07.388Z,85.20
2023-03-15T00:20:15.217Z,84.99
2023-03-15T00:23:22.637Z,84.57
2023-03-15T00:26:30.087Z,84.57
2023-03-15T00:29:37.553Z,84.57
2023-03-15T00:32:45.348Z,84.57
2023-03-15T00:35:52.682Z,84.36
2023-03-15T00:39:00.305Z,84.47
2023-03-15T00:42:08.028Z,84.26
2023-03-15T00:45:15.429Z,84.36
2023-03-15T00:48:22.812Z,84.67
2023-03-15T00:51:30.756Z,84.36
2023-03-15T00:54:38.119Z,84.78
2023-03-15T00:57:45.669Z,84.99
2023-03-15T01:00:53.441Z,85.10
2023-03-15T01:04:00.460Z,84.88
2023-03-15T01:07:08.156Z,85.30
2023-03-15T01:10:15.660Z,85.44
2023-03-15T01:13:22.866Z,84.99
2023-03-15T01:16:30.855Z,84.36
2023-03-15T01:19:38.253Z,84.16
2023-03-15T01:22:45.583Z,84.16
2023-03-15T01:25:53.274Z,84.05
2023-03-15T01:29:00.410Z,84.05
2023-03-15T01:32:08.066Z,84.16
2023-03-15T01:35:16.171Z,83.74
2023-03-15T01:38:23.163Z,84.05
2023-03-15T01:41:30.765Z,84.26
2023-03-15T01:44:38.618Z,84.16
2023-03-15T01:47:45.730Z,84.26
2023-03-15T01:50:53.133Z,83.74
2023-03-15T01:53:55.031Z,83.39
2023-03-15T01:57:02.731Z,83.39
2023-03-15T02:00:10.687Z,82.51
2023-03-15T02:03:18.483Z,82.93
2023-03-15T02:06:25.857Z,82.37
2023-03-15T02:09:34.083Z,81.85
2023-03-15T02:12:41.804Z,80.77
2023-03-15T02:15:49.542Z,80.26
2023-03-15T02:18:57.111Z,80.57
2023-03-15T02:22:04.885Z,80.36
2023-03-15T02:25:12.818Z,80.77
2023-03-15T02:28:20.262Z,80.88
2023-03-15T02:31:28.134Z,79.63
2023-03-15T02:34:36.109Z,80.46
2023-03-15T02:37:43.888Z,80.46
2023-03-15T02:40:51.715Z,80.57
2023-03-15T02:43:59.812Z,80.67
2023-03-15T02:47:07.609Z,81.09
2023-03-15T02:50:15.324Z,80.63
2023-03-15T02:53:23.275Z,80.43
2023-03-15T02:56:31.338Z,80.32
2023-03-15T02:59:39.193Z,81.67
2023-03-15T03:02:46.588Z,82.23
2023-03-15T03:05:54.818Z,83.27
2023-03-15T03:09:02.147Z,83.48
2023-03-15T03:12:10.301Z,84.00
2023-03-15T03:15:18.268Z,84.21
2023-03-15T03:18:25.560Z,83.90
2023-03-15T03:21:33.659Z,83.17
2023-03-15T03:24:41.697Z,83.37
2023-03-15T03:27:49.269Z,83.58
2023-03-15T03:30:57.362Z,83.48
2023-03-15T03:34:05.438Z,84.11
2023-03-15T03:37:12.774Z,83.48
2023-03-15T03:40:20.770Z,83.69
2023-03-15T03:43:28.624Z,83.58
2023-03-15T03:46:36.484Z,84.00
2023-03-15T03:49:44.606Z,83.80
2023-03-15T03:52:52.154Z,83.48
2023-03-15T03:55:59.820Z,82.65
2023-03-15T03:59:07.599Z,83.27
2023-03-15T04:02:15.497Z,83.83
2023-03-15T04:05:23.186Z,83.31
2023-03-15T04:08:30.978Z,84.00
2023-03-15T04:11:38.929Z,84.21
2023-03-15T04:14:46.814Z,84.83
2023-03-15T04:17:54.628Z,84.42
2023-03-15T04:21:02.930Z,84.87
2023-03-15T04:24:10.852Z,84.87
2023-03-15T04:27:18.690Z,85.88
2023-03-15T04:30:26.713Z,85.67
2023-03-15T04:33:34.205Z,85.77
2023-03-15T04:36:42.201Z,85.98
2023-03-15T04:39:50.257Z,86.50
2023-03-15T04:42:57.618Z,86.91
2023-03-15T04:46:05.546Z,87.23
2023-03-15T04:49:13.850Z,87.68
2023-03-15T04:52:21.271Z,88.20
2023-03-15T04:55:29.110Z,88.98
2023-03-15T04:58:37.148Z,89.60
2023-03-15T05:01:44.499Z,89.81
2023-03-15T05:04:52.331Z,90.29
2023-03-15T05:08:00.405Z,90.19
2023-03-15T05:11:07.789Z,90.60
2023-03-15T05:14:15.694Z,91.02
2023-03-15T05:17:23.406Z,91.02
2023-03-15T05:20:31.174Z,91.02
2023-03-15T05:23:39.255Z,91.12
2023-03-15T05:26:46.968Z,91.22
2023-03-15T05:29:54.694Z,91.22
2023-03-15T05:33:02.583Z,91.39
2023-03-15T05:36:10.664Z,91.28
2023-03-15T05:39:18.331Z,91.50
2023-03-15T05:42:26.290Z,91.22
2023-03-15T05:45:34.590Z,91.50
2023-03-15T05:48:42.218Z,91.91
2023-03-15T05:51:50.017Z,91.91
2023-03-15T05:54:57.965Z,92.22
2023-03-15T05:58:05.709Z,92.12
2023-03-15T06:01:13.604Z,92.33
2023-03-15T06:04:22.245Z,92.22
2023-03-15T06:07:29.933Z,92.12
2023-03-15T06:10:37.696Z,92.02
2023-03-15T06:13:45.581Z,92.02
2023-03-15T06:16:52.937Z,92.12
2023-03-15T06:20:00.884Z,91.81
2023-03-15T06:23:08.659Z,91.71
2023-03-15T06:26:16.243Z,91.87
2023-03-15T06:29:24.116Z,91.97
2023-03-15T06:32:31.940Z,91.87
2023-03-15T06:35:39.349Z,91.66
2023-03-15T06:38:46.935Z,91.46
2023-03-15T06:41:54.598Z,91.35
2023-03-15T06:45:01.891Z,91.77
2023-03-15T06:48:09.389Z,91.46
2023-03-15T06:51:16.683Z,91.31
2023-03-15T06:54:24.798Z,91.72
2023-03-15T06:57:32.758Z,91.31
2023-03-15T07:00:40.178Z,91.41
2023-03-15T07:03:48.225Z,91.62
2023-03-15T07:06:55.912Z,91.68
2023-03-15T07:10:03.641Z,91.68
2023-03-15T07:13:11.347Z,91.58
2023-03-15T07:16:19.018Z,91.53
2023-03-15T07:19:27.008Z,90.29
2023-03-15T07:22:34.246Z,90.60
2023-03-15T07:25:54.427Z,90.12
2023-03-15T07:28:47.679Z,90.23
2023-03-15T07:31:55.059Z,90.23
2023-03-15T07:35:03.898Z,90.02
2023-03-15T07:38:11.863Z,89.92
2023-03-15T07:41:19.081Z,90.08
2023-03-15T07:44:26.992Z,89.46
2023-03-15T07:47:34.896Z,89.00
2023-03-15T07:50:42.305Z,88.28
2023-03-15T07:53:49.887Z,87.55
2023-03-15T07:56:57.641Z,87.99
2023-03-15T08:00:05.235Z,86.33
2023-03-15T08:03:13.299Z,85.91
2023-03-15T08:06:20.905Z,86.02
2023-03-15T08:09:28.541Z,86.54
2023-03-15T08:12:36.489Z,86.91
2023-03-15T08:15:44.329Z,86.15
2023-03-15T08:18:51.964Z,86.21
2023-03-15T08:22:00.439Z,85.63
2023-03-15T08:25:07.983Z,84.38
2023-03-15T08:28:15.923Z,84.69
2023-03-15T08:31:23.858Z,83.65
2023-03-15T08:34:31.861Z,82.89
2023-03-15T08:37:39.524Z,84.13
2023-03-15T08:40:46.913Z,82.34
2023-03-15T08:43:54.849Z,81.82
2023-03-15T08:47:02.656Z,82.17
2023-03-15T08:50:10.366Z,82.48
2023-03-15T08:53:18.515Z,81.96
2023-03-15T08:56:26.373Z,82.17
2023-03-15T08:59:34.076Z,82.17
2023-03-15T09:02:41.687Z,82.54
2023-03-15T09:05:49.213Z,81.64
2023-03-15T09:08:57.135Z,81.37
2023-03-15T09:12:04.295Z,78.71
2023-03-15T09:15:11.777Z,80.44
2023-03-15T09:18:19.701Z,82.31
2023-03-15T09:21:27.347Z,82.65
2023-03-15T09:24:34.841Z,81.68
2023-03-15T09:27:42.712Z,80.85
2023-03-15T09:30:50.167Z,80.68
2023-03-15T09:33:58.107Z,80.26
2023-03-15T09:37:06.117Z,80.40
2023-03-15T09:40:13.493Z,78.50
2023-03-15T09:43:21.528Z,78.95
2023-03-15T09:46:29.843Z,79.53
2023-03-15T09:49:37.101Z,76.18
2023-03-15T09:52:45.063Z,74.43
2023-03-15T09:55:52.933Z,74.74
2023-03-15T09:59:00.199Z,75.05
2023-03-15T10:02:08.008Z,75.84
2023-03-15T10:05:15.583Z,74.63
2023-03-15T10:08:23.513Z,71.67
2023-03-15T10:11:31.232Z,72.05
2023-03-15T10:14:39.236Z,72.98
2023-03-15T10:17:46.493Z,73.91
2023-03-15T10:20:54.668Z,74.02
2023-03-15T10:24:02.060Z,74.95
2023-03-15T10:27:10.401Z,74.22
2023-03-15T10:30:18.247Z,74.91
2023-03-15T10:33:26.013Z,71.33
2023-03-15T10:36:33.913Z,70.89
2023-03-15T10:39:41.916Z,73.02
2023-03-15T10:42:49.375Z,69.44
2023-03-15T10:45:57.604Z,68.51
2023-03-15T10:49:04.953Z,68.07
2023-03-15T10:52:13.374Z,67.03
2023-03-15T10:55:21.254Z,66.66
2023-03-15T10:58:28.916Z,68.34
2023-03-15T11:01:36.876Z,69.12
2023-03-15T11:04:44.918Z,67.78
2023-03-15T11:07:52.158Z,69.12
2023-03-15T11:11:00.209Z,69.47
2023-03-15T11:14:07.501Z,69.47
2023-03-15T11:17:15.512Z,72.95
2023-03-15T11:20:23.063Z,74.71
2023-03-15T11:23:30.663Z,75.60
2023-03-15T11:26:38.285Z,74.88
2023-03-15T11:29:46.179Z,74.15
2023-03-15T11:32:53.503Z,76.12
2023-03-15T11:36:01.488Z,74.84
2023-03-15T11:39:08.688Z,74.40
2023-03-15T11:42:16.927Z,72.33
2023-03-15T11:45:24.472Z,71.85
2023-03-15T11:48:32.029Z,70.51
2023-03-15T11:51:39.441Z,73.22
2023-03-15T11:54:47.558Z,70.16
2023-03-15T11:57:55.124Z,66.99
2023-03-15T12:01:03.103Z,71.22
2023-03-15T12:04:10.358Z,69.40
2023-03-15T12:07:18.918Z,72.29
2023-03-15T12:10:26.790Z,72.50
2023-03-15T12:13:34.448Z,71.57
2023-03-15T12:16:42.157Z,72.78
2023-03-15T12:19:50.117Z,70.95
2023-03-15T12:22:58.336Z,65.66
2023-03-15T12:26:06.074Z,64.80
2023-03-15T12:29:13.384Z,62.08
2023-03-15T12:32:21.605Z,63.64
2023-03-15T12:35:29.120Z,62.88
2023-03-15T12:38:36.809Z,62.03
2023-03-15T12:41:44.102Z,62.24
2023-03-15T12:44:52.244Z,61.90
2023-03-15T12:47:59.454Z,62.49
2023-03-15T12:51:07.472Z,58.78
2023-03-15T12:54:15.569Z,59.33
2023-03-15T12:57:22.866Z,60.00
2023-03-15T13:00:30.795Z,61.96
2023-03-15T13:03:38.454Z,60.59
2023-03-15T13:06:46.142Z,57.88
2023-03-15T13:09:54.075Z,60.30
2023-03-15T13:13:01.778Z,57.08
2023-03-15T13:16:09.500Z,56.54
2023-03-15T13:19:17.732Z,57.50
2023-03-15T13:22:25.612Z,55.30
2023-03-15T13:25:33.353Z,54.94
2023-03-15T13:28:41.434Z,55.72
2023-03-15T13:31:49.026Z,60.51
2023-03-15T13:34:56.581Z,64.73
2023-03-15T13:38:04.242Z,68.27
2023-03-15T13:41:12.247Z,69.47
2023-03-15T13:44:19.845Z,71.26
2023-03-15T13:47:27.988Z,74.81
2023-03-15T13:50:36.079Z,75.02
2023-03-15T13:53:50.000Z,75.43
2023-03-15T13:56:49.867Z,74.91
2023-03-15T13:59:57.801Z,73.74
2023-03-15T14:03:05.203Z,72.43
2023-03-15T14:06:13.441Z,71.60
2023-03-15T14:09:21.615Z,72.94
2023-03-15T14:12:28.963Z,73.33
2023-03-15T14:15:37.219Z,73.74
2023-03-15T14:18:44.774Z,74.40
2023-03-15T14:21:52.305Z,74.40
2023-03-15T14:24:59.984Z,74.15
2023-03-15T14:28:07.724Z,72.26
2023-03-15T14:31:15.415Z,68.02
2023-03-15T14:34:23.355Z,67.30
2023-03-15T14:37:31.038Z,68.92
2023-03-15T14:40:38.234Z,67.30
2023-03-15T14:43:45.623Z,67.19
2023-03-15T14:46:53.593Z,66.06
2023-03-15T14:50:01.323Z,66.75
2023-03-15T14:53:08.754Z,67.16
2023-03-15T14:56:19.335Z,66.99
2023-03-15T14:59:27.058Z,69.57
2023-03-15T15:02:35.354Z,70.64
2023-03-15T15:05:43.636Z,70.85
2023-03-15T15:08:50.954Z,70.99
2023-03-15T15:11:58.883Z,71.09
2023-03-15T15:15:06.806Z,71.12
2023-03-15T15:18:14.076Z,70.92
2023-03-15T15:21:22.005Z,69.99
2023-03-15T15:24:29.477Z,69.51
2023-03-15T15:27:36.978Z,68.88
2023-03-15T15:30:44.576Z,67.85
2023-03-15T15:33:52.114Z,69.85
2023-03-15T15:36:59.634Z,70.03
2023-03-15T15:40:07.688Z,66.85
2023-03-15T15:43:15.123Z,66.23
2023-03-15T15:46:22.826Z,64.48
2023-03-15T15:49:29.897Z,64.68
2023-03-15T15:52:38.027Z,64.71
2023-03-15T15:55:45.741Z,65.54
2023-03-15T15:58:53.383Z,66.06
2023-03-15T16:02:02.373Z,66.47
2023-03-15T16:05:11.255Z,64.81
2023-03-15T16:08:19.193Z,65.44
2023-03-15T16:11:27.051Z,65.36
2023-03-15T16:14:34.637Z,65.47
2023-03-15T16:17:42.276Z,66.32
2023-03-15T16:20:49.697Z,66.32
2023-03-15T16:23:57.156Z,66.50
2023-03-15T16:27:04.727Z,64.87
2023-03-15T16:30:12.213Z,66.42
2023-03-15T16:33:19.843Z,65.81
2023-03-15T16:36:27.415Z,65.91
2023-03-15T16:39:34.833Z,66.53
2023-03-15T16:42:42.302Z,66.32
2023-03-15T16:45:50.049Z,66.77
2023-03-15T16:48:57.568Z,67.91
2023-03-15T16:52:05.186Z,66.56
2023-03-15T16:55:12.786Z,66.90
2023-03-15T16:58:20.510Z,67.94
2023-03-15T17:01:28.047Z,68.35
2023-03-15T17:04:35.493Z,69.21
2023-03-15T17:07:43.559Z,69.63
2023-03-15T17:10:51.352Z,70.80
2023-03-15T17:13:59.039Z,71.11
2023-03-15T17:17:06.870Z,72.28
2023-03-15T17:20:14.141Z,72.08
2023-03-15T17:23:22.007Z,73.25
2023-03-15T17:26:29.936Z,73.46
2023-03-15T17:29:37.285Z,74.74
2023-03-15T17:32:45.084Z,74.32
2023-03-15T17:35:52.898Z,74.95
2023-03-15T17:39:00.292Z,75.81
2023-03-15T17:42:07.900Z,75.81
2023-03-15T17:45:15.578Z,76.57
2023-03-15T17:48:23.356Z,77.51
2023-03-15T17:51:31.782Z,77.96
2023-03-15T17:54:39.371Z,78.89
2023-03-15T17:57:55.271Z,78.62
2023-03-15T18:00:55.958Z,79.24
2023-03-15T18:03:54.789Z,79.87
2023-03-15T18:07:04.178Z,80.18
2023-03-15T18:10:02.835Z,80.39
2023-03-15T18:13:14.189Z,80.84
2023-03-15T18:16:24.102Z,81.36
2023-03-15T18:19:23.140Z,81.60
2023-03-15T18:22:32.694Z,82.13
2023-03-15T18:25:31.552Z,83.00
2023-03-15T18:28:43.296Z,84.14
2023-03-15T18:31:52.982Z,84.60
2023-03-15T18:34:51.496Z,84.70
2023-03-15T18:38:00.182Z,84.81
2023-03-15T18:41:09.363Z,85.85
2023-03-15T18:44:20.831Z,86.41
2023-03-15T18:47:30.260Z,87.24
2023-03-15T18:50:28.931Z,87.66
2023-03-15T18:53:40.301Z,87.87
2023-03-15T18:56:47.762Z,88.22
2023-03-15T18:59:58.856Z,88.22
2023-03-15T19:03:08.416Z,88.47
2023-03-15T19:06:07.158Z,88.57
2023-03-15T19:09:18.612Z,88.89
2023-03-15T19:12:26.003Z,89.34
2023-03-15T19:15:37.667Z,90.18
2023-03-15T19:18:38.219Z,90.39
2023-03-15T19:21:45.792Z,90.64
2023-03-15T19:24:57.003Z,90.53
2023-03-15T19:28:04.594Z,90.53
2023-03-15T19:31:15.797Z,90.64
2023-03-15T19:34:16.616Z,90.64
2023-03-15T19:37:24.031Z,90.95
2023-03-15T19:40:35.464Z,91.10
2023-03-15T19:43:33.996Z,91.27
2023-03-15T19:46:43.588Z,91.31
2023-03-15T19:49:44.315Z,91.31
2023-03-15T19:52:51.975Z,91.41
2023-03-15T19:56:03.273Z,91.31
2023-03-15T19:59:01.856Z,91.31
2023-03-15T20:02:11.409Z,91.41
2023-03-15T20:05:12.049Z,91.72
2023-03-15T20:08:21.332Z,92.14
2023-03-15T20:11:30.928Z,92.40
2023-03-15T20:14:29.521Z,92.71
2023-03-15T20:17:38.875Z,92.50
2023-03-15T20:20:39.417Z,92.60
2023-03-15T20:23:37.818Z,92.60
2023-03-15T20:26:47.255Z,92.71
2023-03-15T20:29:45.733Z,92.60
2023-03-15T20:32:55.069Z,92.54
2023-03-15T20:35:55.547Z,92.54
2023-03-15T20:38:54.139Z,92.44
2023-03-15T20:42:01.829Z,92.44
2023-03-15T20:45:09.309Z,92.85
2023-03-15T20:48:16.885Z,93.07
2023-03-15T20:51:24.731Z,93.11
2023-03-15T20:54:32.375Z,93.11
2023-03-15T20:57:39.789Z,93.11
2023-03-15T21:00:47.237Z,93.11
2023-03-15T21:03:54.955Z,93.21
2023-03-15T21:07:02.524Z,93.11
2023-03-15T21:10:09.952Z,92.90
2023-03-15T21:13:17.590Z,92.90
2023-03-15T21:16:26.433Z,93.32
2023-03-15T21:19:34.063Z,93.32
2023-03-15T21:22:41.739Z,93.42
2023-03-15T21:25:49.298Z,93.36
2023-03-15T21:28:57.099Z,93.88
2023-03-15T21:32:04.705Z,93.88
2023-03-15T21:35:12.197Z,93.78
2023-03-15T21:38:19.643Z,93.88
2023-03-15T21:41:27.109Z,93.99
2023-03-15T21:44:34.656Z,93.78
2023-03-15T21:47:42.165Z,93.88
2023-03-15T21:50:49.589Z,93.88
2023-03-15T21:53:56.930Z,93.99
2023-03-15T21:57:04.390Z,94.09
2023-03-15T22:00:12.010Z,94.13
2023-03-15T22:03:19.459Z,94.34
2023-03-15T22:06:27.170Z,94.45
2023-03-15T22:09:34.859Z,94.45
2023-03-15T22:12:42.272Z,94.45
2023-03-15T22:15:49.920Z,94.45
2023-03-15T22:18:57.598Z,94.56
2023-03-15T22:22:05.062Z,94.56
2023-03-15T22:25:12.490Z,94.66
2023-03-15T22:28:19.682Z,94.66
2023-03-15T22:31:27.240Z,94.56
2023-03-15T22:34:34.734Z,94.66
2023-03-15T22:37:42.060Z,94.81
2023-03-15T22:40:49.688Z,94.81
2023-03-15T22:43:57.169Z,94.70
2023-03-15T22:47:04.622Z,94.70
2023-03-15T22:50:12.256Z,94.60
2023-03-15T22:53:19.693Z,94.49
2023-03-15T22:56:27.171Z,94.38
2023-03-15T22:59:34.734Z,94.28
2023-03-15T23:02:42.298Z,94.07
2023-03-15T23:05:49.846Z,94.28
2023-03-15T23:08:57.281Z,94.18
2023-03-15T23:12:04.602Z,94.07
2023-03-15T23:15:12.289Z,94.07
2023-03-15T23:18:19.840Z,94.18
2023-03-15T23:21:27.421Z,94.18
2023-03-15T23:24:34.931Z,94.18
2023-03-15T23:27:42.468Z,94.07
2023-03-15T23:30:49.945Z,93.97
2023-03-15T23:33:57.457Z,93.87
2023-03-15T23:37:04.944Z,93.87
2023-03-15T23:40:12.378Z,94.07
2023-03-15T23:43:19.865Z,94.28
2023-03-15T23:46:27.594Z,94.28
2023-03-15T23:49:34.986Z,94.28
2023-03-15T23:52:42.455Z,94.28
2023-03-15T23:55:49.875Z,94.64
2023-03-15T23:58:57.306Z,94.64
